GGOV

Osvaldo Vieira International Airport

Bissau, Guinea-Bissau
METAR GGOV 181600Z 18008KT CAVOK 32/25 Q1007 NOSIG
Observed Flight Rules
Oct-18 @ 16:00 UTC (55 minutes ago) Visual Flight Rules
Wind Visibility Clouds
180° at 8 knots 10,000+ meters
  • Clear skies
Temperatures Readings
Current 32°C / 90°F
Dewpoint 25°C / 77°F
Humidity 67%
Altimeter 29.73" Hg
Pressure 1007 hPa
Elevation 36
METAR GGOV 181600Z 18008KT CAVOK 32/25 Q1007 NOSIG
Observed Flight Rules
Oct-18 @ 16:00 UTC
(55 minutes ago)
VFR
Wind Visibility
180° at 8 knots 10,000+ meters
Clouds
  • Clear skies
Temperature Dewpoint
32°C / 90°F 25°C / 77°F
Humidity Altimeter Pressure
67% 29.73" Hg 1007 hPa